Time;durP1;ratioP1;P1;durP2;ratioP2;P2;SDS_P1;SDS_P2;PMS_P1;PMS_P2;Temp;Humidity;BMP_temperature;BMP_pressure;BME280_temperature;BME280_humidity;BME280_pressure;Samples;Min_cycle;Max_cycle;Signal;HPM_P1;HPM_P2
2021/06/18 00:00:32;;;;;;;1.75;0.52;;;;;;;15.76;47.31;101416.00;3604683;40;20064;-78
2021/06/18 00:03:03;;;;;;;2.28;0.75;;;;;;;15.69;48.62;101417.13;3598511;39;20024;-78
2021/06/18 00:05:30;;;;;;;1.27;0.60;;;;;;;15.65;48.70;101416.38;3604659;40;20028;-78
2021/06/18 00:07:57;;;;;;;1.03;0.50;;;;;;;15.58;47.71;101412.19;3602021;39;20033;-78
2021/06/18 00:10:25;;;;;;;1.90;0.40;;;;;;;15.54;48.57;101415.81;3601703;39;20298;-78
2021/06/18 00:12:58;;;;;;;0.63;0.30;;;;;;;15.48;47.76;101421.28;3602006;40;20044;-78
2021/06/18 00:15:26;;;;;;;0.70;0.28;;;;;;;15.42;48.68;101416.22;3602420;40;20037;-78
2021/06/18 00:17:53;;;;;;;0.52;0.32;;;;;;;15.27;48.97;101412.28;3600891;39;20032;-78
2021/06/18 00:20:25;;;;;;;0.80;0.30;;;;;;;15.29;48.07;101421.84;3607533;39;20060;-78
2021/06/18 00:22:51;;;;;;;2.17;0.30;;;;;;;15.25;49.34;101429.88;3599447;39;20535;-78
2021/06/18 00:25:20;;;;;;;3.10;0.40;;;;;;;15.19;49.30;101430.94;3595305;39;20043;-78
2021/06/18 00:27:47;;;;;;;1.50;0.50;;;;;;;15.13;49.21;101439.00;3606969;40;20036;-78
2021/06/18 00:30:15;;;;;;;2.60;0.50;;;;;;;15.08;49.95;101437.44;3612155;39;20028;-77
2021/06/18 00:32:43;;;;;;;3.80;0.43;;;;;;;15.03;49.65;101445.44;3603772;40;20325;-78
2021/06/18 00:35:11;;;;;;;1.80;0.75;;;;;;;14.98;49.00;101437.69;3603858;40;20106;-78
2021/06/18 00:37:42;;;;;;;2.47;0.77;;;;;;;14.94;49.51;101441.31;3606847;39;20064;-78
2021/06/18 00:40:10;;;;;;;2.55;0.32;;;;;;;14.87;49.75;101436.28;3609358;39;20028;-78
2021/06/18 00:42:38;;;;;;;;;;;;;;;14.85;47.02;101451.22;3599050;40;20610;-77
2021/06/18 00:45:08;;;;;;;;;;;;;;;14.79;46.72;101447.88;3595972;40;19940;-78
2021/06/18 00:47:40;;;;;;;2.05;0.70;;;;;;;14.71;50.57;101438.50;3593773;40;19936;-77
2021/06/18 00:52:48;;;;;;;1.38;0.40;;;;;;;14.58;50.13;101426.59;3610765;39;20082;-78
2021/06/18 00:55:25;;;;;;;1.40;0.43;;;;;;;14.52;49.66;101440.75;3606347;40;20028;-78
2021/06/18 00:57:53;;;;;;;2.28;0.50;;;;;;;14.47;51.21;101434.75;3589931;40;20448;-79
2021/06/18 01:00:20;;;;;;;0.70;0.38;;;;;;;14.42;51.30;101436.63;3602612;40;20452;-78
2021/06/18 01:02:48;;;;;;;2.13;0.57;;;;;;;14.36;50.93;101436.78;3597383;39;20020;-78
2021/06/18 01:05:17;;;;;;;;;;;;;;;14.34;47.84;101447.31;3605975;40;20036;-78
2021/06/18 01:08:10;;;;;;;0.82;0.40;;;;;;;14.26;49.33;101447.53;3613046;39;19927;-78
2021/06/18 01:11:05;;;;;;;1.63;0.45;;;;;;;14.22;50.12;101451.16;3598321;40;20044;-78
2021/06/18 01:13:40;;;;;;;3.30;1.00;;;;;;;14.11;50.94;101458.44;3627576;22;20046;-78
2021/06/18 01:16:14;;;;;;;1.30;0.38;;;;;;;14.10;50.90;101461.97;3582081;39;20054;-78
2021/06/18 01:19:02;;;;;;;1.80;0.50;;;;;;;14.06;49.78;101454.22;3574850;39;20041;-77
2021/06/18 01:21:44;;;;;;;1.52;0.55;;;;;;;14.01;52.48;101457.81;3580024;39;20520;-77
2021/06/18 01:24:35;;;;;;;2.33;0.60;;;;;;;13.97;50.52;101452.66;3570598;40;20030;-78
2021/06/18 01:27:34;;;;;;;0.63;0.43;;;;;;;13.91;50.47;101452.81;3579061;40;20093;-78
2021/06/18 01:30:10;;;;;;;1.00;0.50;;;;;;;13.87;51.55;101457.28;3573184;39;20075;-78
2021/06/18 01:33:04;;;;;;;1.23;0.63;;;;;;;13.83;52.10;101449.50;3576359;39;20022;-78
2021/06/18 01:35:45;;;;;;;1.50;0.38;;;;;;;13.80;51.23;101457.47;3570236;39;20826;-78
2021/06/18 01:38:19;;;;;;;1.67;0.40;;;;;;;13.80;52.37;101457.47;3570115;39;20412;-78
2021/06/18 01:40:53;;;;;;;3.38;0.68;;;;;;;13.75;52.51;101462.84;3569970;39;20026;-78
2021/06/18 01:43:24;;;;;;;1.98;0.43;;;;;;;13.75;52.83;101466.31;3575400;39;20058;-78
2021/06/18 01:45:53;;;;;;;1.75;0.50;;;;;;;13.71;53.47;101459.41;3570613;39;20022;-78
2021/06/18 01:48:24;;;;;;;3.00;0.75;;;;;;;13.71;52.49;101467.28;3570089;39;20822;-78
2021/06/18 01:50:54;;;;;;;2.47;0.70;;;;;;;13.69;53.56;101461.22;3569950;39;20465;-78
2021/06/18 01:53:24;;;;;;;2.15;0.52;;;;;;;13.69;53.42;101466.47;3564607;39;20067;-78
2021/06/18 01:56:01;;;;;;;2.85;0.80;;;;;;;13.66;52.41;101460.41;3568877;40;20069;-78
2021/06/18 01:58:32;;;;;;;;;;;;;;;13.59;50.21;101449.22;3570089;39;20025;-78
2021/06/18 02:01:04;;;;;;;2.15;0.40;;;;;;;13.65;52.66;101470.06;3575077;39;19945;-78
2021/06/18 02:03:35;;;;;;;2.05;0.50;;;;;;;13.59;52.58;101459.72;3574941;40;20050;-78
2021/06/18 02:06:04;;;;;;;2.55;0.60;;;;;;;13.55;52.69;101450.16;3560076;40;20050;-78
2021/06/18 02:08:59;;;;;;;1.20;0.60;;;;;;;13.54;51.37;101452.84;3569170;40;20065;-78
2021/06/18 02:11:34;;;;;;;0.95;0.40;;;;;;;13.45;52.55;101440.78;3572918;39;20071;-78
2021/06/18 02:14:01;;;;;;;2.25;0.60;;;;;;;13.40;54.01;101447.91;3575549;39;20098;-78
2021/06/18 02:16:32;;;;;;;2.78;0.40;;;;;;;13.39;52.93;101457.53;3579490;39;20034;-78
2021/06/18 02:19:02;;;;;;;1.23;0.40;;;;;;;13.35;53.78;101465.50;3571837;40;20040;-78
2021/06/18 02:24:26;;;;;;;2.67;0.70;;;;;;;13.26;53.60;101456.06;3621263;39;20489;-77
2021/06/18 02:26:55;;;;;;;1.73;0.80;;;;;;;13.17;53.72;101450.97;3612859;39;22041;-77
2021/06/18 02:29:24;;;;;;;0.70;0.50;;;;;;;13.13;53.64;101460.69;3626442;39;20035;-77
2021/06/18 02:31:58;;;;;;;1.08;0.52;;;;;;;13.12;53.26;101473.81;3616779;39;20067;-78
2021/06/18 02:34:25;;;;;;;1.98;0.40;;;;;;;13.04;53.77;101466.13;3632368;39;20019;-78
2021/06/18 02:36:54;;;;;;;1.98;0.40;;;;;;;13.01;53.91;101466.16;3623068;39;20052;-78
2021/06/18 02:39:23;;;;;;;0.75;0.52;;;;;;;12.95;54.70;101472.41;3632494;39;20718;-78
2021/06/18 02:41:53;;;;;;;1.50;0.60;;;;;;;12.90;54.07;101471.63;3628164;39;20775;-79
2021/06/18 02:44:20;;;;;;;1.63;0.52;;;;;;;12.84;54.71;101466.53;3634537;39;20059;-78
2021/06/18 02:47:00;;;;;;;2.63;0.73;;;;;;;12.80;53.24;101464.84;3625640;39;20043;-78
2021/06/18 02:49:51;;;;;;;1.92;0.68;;;;;;;12.79;53.55;101470.13;3634535;39;20122;-77
2021/06/18 02:52:53;;;;;;;1.50;0.55;;;;;;;12.71;52.93;101471.13;3629715;39;20107;-78
2021/06/18 02:55:33;;;;;;;1.67;0.50;;;;;;;12.67;54.40;101472.09;3596931;40;20029;-78
2021/06/18 02:58:07;;;;;;;1.98;0.60;;;;;;;12.62;54.98;101471.31;3635984;22;20054;-78
2021/06/18 03:00:39;;;;;;;3.15;0.60;;;;;;;12.57;55.32;101475.78;3609207;39;20270;-78
2021/06/18 03:03:10;;;;;;;1.88;0.65;;;;;;;12.59;56.23;101484.47;3619230;39;20676;-78
2021/06/18 03:06:08;;;;;;;1.10;0.50;;;;;;;12.56;53.35;101489.75;3599280;39;20025;-78
2021/06/18 03:09:00;;;;;;;0.85;0.40;;;;;;;12.54;53.42;101496.78;3622142;39;20726;-78
2021/06/18 03:11:29;;;;;;;3.75;1.00;;;;;;;12.49;55.59;101482.03;3589721;39;20051;-78
2021/06/18 03:13:59;;;;;;;1.60;0.47;;;;;;;12.46;56.24;101483.81;3607240;39;20070;-78
2021/06/18 03:16:31;;;;;;;2.10;0.85;;;;;;;12.46;55.57;101493.44;3612380;39;20040;-78
2021/06/18 03:19:01;;;;;;;1.05;0.40;;;;;;;12.42;55.32;101486.53;3647703;22;20802;-76
2021/06/18 03:21:33;;;;;;;2.75;0.70;;;;;;;12.35;55.50;101477.91;3572119;40;20030;-78
2021/06/18 03:24:04;;;;;;;1.63;0.50;;;;;;;12.34;56.13;101483.19;3565772;40;20502;-78
2021/06/18 03:26:33;;;;;;;2.15;0.70;;;;;;;12.29;56.37;101479.78;3568329;40;20422;-78
2021/06/18 03:29:03;;;;;;;4.28;0.80;;;;;;;12.24;56.25;101485.09;3567030;40;20030;-78
2021/06/18 03:31:32;;;;;;;1.08;0.47;;;;;;;12.20;56.15;101481.66;3570088;40;20070;-78
2021/06/18 03:34:00;;;;;;;3.30;0.93;;;;;;;12.17;55.60;101486.97;3594440;40;20435;-78
2021/06/18 03:36:28;;;;;;;;;;;;;;;12.13;52.75;101485.28;3560651;40;20083;-77
2021/06/18 03:38:56;;;;;;;1.63;0.70;;;;;;;12.04;57.52;101476.69;3556982;40;19949;-78
2021/06/18 03:41:26;;;;;;;1.52;0.60;;;;;;;12.02;56.64;101475.88;3556328;40;20091;-78
2021/06/18 03:43:55;;;;;;;3.15;0.52;;;;;;;11.99;56.97;101487.25;3559550;40;20968;-77
2021/06/18 03:46:24;;;;;;;2.50;0.65;;;;;;;11.94;57.45;101483.84;3557756;40;20035;-78
2021/06/18 03:48:53;;;;;;;2.05;0.68;;;;;;;11.91;57.83;101489.09;3559338;40;20042;-78
2021/06/18 03:51:25;;;;;;;1.65;0.60;;;;;;;11.87;56.16;101485.69;3565813;40;20038;-77
2021/06/18 03:53:56;;;;;;;2.13;0.60;;;;;;;11.85;55.75;101494.44;3570047;40;20063;-77
2021/06/18 03:56:33;;;;;;;3.35;0.70;;;;;;;11.80;56.10;101496.22;3569174;39;20035;-78
2021/06/18 03:59:01;;;;;;;2.03;0.60;;;;;;;11.75;57.38;101487.59;3579374;39;20545;-78
2021/06/18 04:01:29;;;;;;;1.50;0.50;;;;;;;11.69;56.42;101486.78;3559986;39;20046;-78
2021/06/18 04:03:59;;;;;;;0.88;0.40;;;;;;;11.64;56.29;101491.22;3561152;39;20419;-78
2021/06/18 04:06:28;;;;;;;2.15;0.77;;;;;;;11.67;57.97;101499.03;3562350;40;20768;-78
2021/06/18 04:08:55;;;;;;;1.13;0.60;;;;;;;11.65;56.05;101502.56;3561316;40;20565;-78
2021/06/18 04:11:23;;;;;;;1.23;0.50;;;;;;;11.64;56.02;101491.22;3561285;40;20054;-78
2021/06/18 04:13:52;;;;;;;;;;;;;;;11.65;53.78;101499.94;3566140;40;20614;-78
2021/06/18 04:16:19;;;;;;;1.52;0.47;;;;;;;11.63;56.61;101499.09;3559074;40;19966;-78
2021/06/18 04:18:50;;;;;;;1.42;0.50;;;;;;;11.62;57.06;101489.53;3564755;40;20022;-78
2021/06/18 04:21:22;;;;;;;1.35;0.47;;;;;;;11.64;57.68;101498.22;3568067;40;20041;-78
2021/06/18 04:23:51;;;;;;;1.98;0.77;;;;;;;11.62;58.07;101498.25;3562271;40;20034;-77
2021/06/18 04:26:20;;;;;;;3.08;0.73;;;;;;;11.59;57.38;101492.19;3575488;39;20036;-78
2021/06/18 04:28:53;;;;;;;2.35;0.60;;;;;;;11.60;57.12;101492.16;3573630;39;20037;-78
2021/06/18 04:31:21;;;;;;;1.88;0.60;;;;;;;11.58;57.86;101501.78;3564229;40;20037;-78
2021/06/18 04:36:37;;;;;;;7.10;1.63;;;;;;;11.48;58.88;101502.78;3635948;39;19980;-78
2021/06/18 04:41:39;;;;;;;1.02;0.63;;;;;;;11.44;58.85;101503.72;3638188;39;20045;-78
2021/06/18 04:44:06;;;;;;;2.33;0.80;;;;;;;11.36;58.55;101505.59;3631184;39;20053;-78
2021/06/18 04:46:36;;;;;;;2.28;1.15;;;;;;;11.43;58.36;101517.69;3627066;39;20593;-77
2021/06/18 04:49:03;;;;;;;3.05;1.00;;;;;;;11.40;59.25;101516.00;3633258;39;20027;-77
2021/06/18 04:51:30;;;;;;;2.90;0.73;;;;;;;11.38;59.43;101515.13;3621559;39;20024;-77
2021/06/18 04:53:58;;;;;;;1.15;0.40;;;;;;;11.38;58.72;101514.25;3637842;39;20063;-78
2021/06/18 04:56:26;;;;;;;1.98;0.60;;;;;;;11.37;59.15;101512.53;3633520;39;20042;-77
2021/06/18 04:58:59;;;;;;;1.45;0.43;;;;;;;11.36;57.90;101516.03;3633117;39;20608;-78
2021/06/18 05:01:25;;;;;;;2.72;0.80;;;;;;;11.38;59.08;101519.50;3633280;39;20719;-77
2021/06/18 05:03:54;;;;;;;3.70;1.23;;;;;;;11.37;60.18;101523.00;3629420;39;20083;-78
2021/06/18 05:06:22;;;;;;;3.15;0.70;;;;;;;11.38;60.41;101514.25;3636339;39;20079;-78
2021/06/18 05:08:51;;;;;;;1.70;0.65;;;;;;;11.41;59.46;101516.84;3624713;39;20027;-78
2021/06/18 05:11:22;;;;;;;2.40;0.73;;;;;;;11.40;59.85;101522.94;3624331;39;20028;-78
2021/06/18 05:13:50;;;;;;;1.40;0.40;;;;;;;11.39;59.56;101516.00;3627525;39;20051;-78
2021/06/18 05:16:17;;;;;;;;;;;;;;;11.49;56.00;101533.28;3623937;39;20035;-77
2021/06/18 05:18:46;;;;;;;3.10;0.50;;;;;;;11.47;59.04;101524.59;3612012;39;19952;-78
2021/06/18 05:21:13;;;;;;;1.55;0.40;;;;;;;11.49;60.27;101535.91;3612378;39;20035;-78
2021/06/18 05:23:41;;;;;;;2.55;0.70;;;;;;;11.53;59.53;101524.53;3632793;39;20039;-78
2021/06/18 05:26:09;;;;;;;;;;;;;;;11.59;56.13;101529.66;3616640;39;20031;-78
2021/06/18 05:28:42;;;;;;;1.95;0.50;;;;;;;11.60;58.63;101526.16;3615683;39;20352;-78
2021/06/18 05:31:16;;;;;;;1.85;0.57;;;;;;;11.64;59.77;101538.31;3622173;39;20024;-78
2021/06/18 05:33:42;;;;;;;2.35;0.70;;;;;;;11.67;60.57;101530.44;3639531;22;20612;-78
2021/06/18 05:36:10;;;;;;;1.08;0.50;;;;;;;11.67;60.36;101522.59;3619794;39;20043;-78
2021/06/18 05:38:42;;;;;;;2.35;0.50;;;;;;;11.73;59.22;101523.38;3612984;39;20023;-79
2021/06/18 05:41:09;;;;;;;1.67;0.52;;;;;;;11.81;59.51;101529.34;3637949;39;20064;-78
2021/06/18 05:43:40;;;;;;;3.08;0.88;;;;;;;11.90;59.47;101529.25;3625806;39;20023;-78
2021/06/18 05:46:11;;;;;;;1.63;0.50;;;;;;;11.92;59.13;101538.84;3623721;39;20055;-78
2021/06/18 05:48:38;;;;;;;1.73;0.70;;;;;;;11.94;59.65;101538.81;3633743;39;20020;-78
2021/06/18 05:51:56;;;;;;;3.65;0.70;;;;;;;12.06;57.73;101546.47;3611686;39;20048;-78
2021/06/18 05:54:26;;;;;;;3.97;0.65;;;;;;;12.08;59.16;101528.13;3597554;39;20015;-78
2021/06/18 05:56:54;;;;;;;1.92;0.57;;;;;;;12.14;59.50;101536.75;3631986;39;20046;-78
2021/06/18 05:59:21;;;;;;;1.08;0.50;;;;;;;12.19;59.61;101531.44;3638145;39;20038;-78
2021/06/18 06:01:53;;;;;;;2.53;0.70;;;;;;;12.24;58.83;101528.75;3627787;39;20059;-78
2021/06/18 06:04:20;;;;;;;2.45;0.60;;;;;;;12.24;60.93;101529.59;3625672;39;20023;-78
2021/06/18 06:06:47;;;;;;;1.45;0.52;;;;;;;12.31;59.38;101525.97;3621899;39;20072;-78
2021/06/18 06:09:16;;;;;;;2.67;0.75;;;;;;;12.38;60.37;101518.91;3634098;39;20471;-78
2021/06/18 06:11:44;;;;;;;5.00;0.90;;;;;;;12.41;60.59;101516.22;3627922;39;20149;-78
2021/06/18 06:14:18;;;;;;;3.38;0.77;;;;;;;12.48;60.10;101520.47;3621608;39;20027;-78
2021/06/18 06:16:46;;;;;;;3.50;0.75;;;;;;;12.46;59.95;101503.91;3630901;39;20031;-78
2021/06/18 06:19:15;;;;;;;4.07;0.80;;;;;;;12.56;59.93;101504.59;3637661;39;20023;-78
2021/06/18 06:21:46;;;;;;;1.45;0.52;;;;;;;12.63;59.10;101517.59;3621545;39;20052;-78
2021/06/18 06:24:15;;;;;;;1.98;0.63;;;;;;;12.65;60.25;101515.78;3619229;39;20055;-78
2021/06/18 06:26:42;;;;;;;1.58;0.45;;;;;;;12.70;60.30;101523.56;3637333;39;20799;-78
2021/06/18 06:29:12;;;;;;;2.50;0.80;;;;;;;12.75;59.82;101515.63;3622925;39;20027;-78
2021/06/18 06:31:44;;;;;;;3.13;0.80;;;;;;;12.80;60.79;101519.88;3620472;39;20063;-78
2021/06/18 06:34:11;;;;;;;3.10;0.60;;;;;;;12.81;60.52;101515.50;3627961;39;20041;-78
2021/06/18 06:36:38;;;;;;;3.00;1.00;;;;;;;12.89;59.82;101524.09;3627934;39;20583;-78
2021/06/18 06:39:08;;;;;;;1.63;0.70;;;;;;;12.97;59.36;101516.94;3647162;39;20022;-78
2021/06/18 06:41:39;;;;;;;4.05;1.15;;;;;;;12.99;60.37;101504.69;3630664;39;20082;-78
2021/06/18 06:44:12;;;;;;;2.13;0.57;;;;;;;13.04;59.61;101515.94;3637858;39;20540;-78
2021/06/18 06:46:39;;;;;;;3.40;0.90;;;;;;;13.08;60.81;101512.38;3637380;39;20026;-78
2021/06/18 06:49:05;;;;;;;4.35;0.85;;;;;;;13.15;60.04;101516.56;3632963;39;20561;-78
2021/06/18 06:51:32;;;;;;;2.33;0.80;;;;;;;13.18;60.47;101510.44;3624445;39;20075;-78
2021/06/18 06:54:00;;;;;;;2.38;0.93;;;;;;;13.26;60.46;101521.63;3636238;39;20030;-78
2021/06/18 06:56:27;;;;;;;3.28;0.60;;;;;;;13.30;60.75;101509.31;3634120;39;20082;-78
2021/06/18 06:58:55;;;;;;;2.50;0.80;;;;;;;13.35;60.71;101513.59;3641874;39;20035;-79
2021/06/18 07:01:22;;;;;;;1.45;0.60;;;;;;;13.38;60.06;101508.28;3641752;39;20030;-78
2021/06/18 07:03:51;;;;;;;1.90;0.68;;;;;;;13.48;59.86;101516.78;3642091;39;20030;-78
2021/06/18 07:06:19;;;;;;;2.50;0.90;;;;;;;13.55;60.95;101517.53;3629353;39;20055;-78
2021/06/18 07:08:48;;;;;;;4.78;0.88;;;;;;;13.61;59.93;101510.38;3642921;39;20083;-78
2021/06/18 07:11:15;;;;;;;4.50;0.70;;;;;;;13.64;60.20;101510.34;3630244;39;20042;-78
2021/06/18 07:13:43;;;;;;;3.55;0.80;;;;;;;13.73;60.04;101512.72;3636591;39;20034;-78
2021/06/18 07:16:11;;;;;;;2.08;0.60;;;;;;;13.80;59.52;101509.97;3623689;39;20034;-78
2021/06/18 07:18:38;;;;;;;3.15;0.90;;;;;;;13.84;59.68;101498.47;3633285;39;20684;-78
2021/06/18 07:21:07;;;;;;;2.50;0.80;;;;;;;13.94;58.91;101508.75;3633098;39;20038;-78
2021/06/18 07:23:35;;;;;;;2.92;0.60;;;;;;;14.02;59.05;101503.31;3636136;39;20094;-78
2021/06/18 07:26:06;;;;;;;2.55;0.60;;;;;;;14.11;58.32;101504.84;3628220;39;20366;-78
2021/06/18 07:28:36;;;;;;;1.17;0.57;;;;;;;14.17;58.41;101507.31;3646983;39;20029;-78
2021/06/18 07:31:04;;;;;;;3.47;0.70;;;;;;;14.21;58.07;101503.72;3639100;39;20027;-78
2021/06/18 07:33:34;;;;;;;;;;;;;;;14.35;56.27;101503.41;3642090;39;20563;-78
2021/06/18 07:36:08;;;;;;;1.10;0.50;;;;;;;14.39;57.55;101502.38;3638069;39;19931;-78
2021/06/18 07:38:37;;;;;;;2.50;0.45;;;;;;;14.40;57.80;101498.88;3632053;39;20023;-78
2021/06/18 07:41:04;;;;;;;3.00;0.60;;;;;;;14.46;58.02;101501.34;3634406;39;20031;-78
2021/06/18 07:43:32;;;;;;;2.20;0.68;;;;;;;14.56;56.77;101508.13;3639236;39;20058;-78
2021/06/18 07:46:00;;;;;;;1.75;0.60;;;;;;;14.60;56.31;101501.88;3640592;39;20030;-79
2021/06/18 07:48:40;;;;;;;2.08;0.70;;;;;;;14.69;56.60;101504.25;3635989;39;20026;-78
2021/06/18 07:51:09;;;;;;;1.30;0.60;;;;;;;14.77;56.07;101512.78;3631013;39;20490;-78
2021/06/18 07:53:39;;;;;;;3.00;0.73;;;;;;;14.84;55.58;101512.63;3631162;39;20066;-78
2021/06/18 07:56:07;;;;;;;2.05;0.63;;;;;;;14.87;55.62;101507.28;3632351;39;20386;-78
2021/06/18 07:58:39;;;;;;;1.30;0.60;;;;;;;14.95;54.53;101505.28;3636634;39;20022;-79
2021/06/18 08:01:09;;;;;;;0.95;0.40;;;;;;;15.01;54.67;101507.78;3639287;39;20055;-78
2021/06/18 08:03:38;;;;;;;1.45;0.47;;;;;;;15.09;53.57;101508.41;3631839;39;20042;-79
2021/06/18 08:06:11;;;;;;;2.15;0.55;;;;;;;15.13;53.96;101510.03;3636003;39;20727;-78
2021/06/18 08:08:37;;;;;;;2.38;0.60;;;;;;;15.19;54.18;101509.00;3638892;39;20030;-79
2021/06/18 08:11:07;;;;;;;0.98;0.32;;;;;;;15.27;54.09;101502.63;3641745;39;20026;-79
2021/06/18 08:13:33;;;;;;;0.90;0.47;;;;;;;15.34;53.60;101507.69;3630957;39;20052;-78
2021/06/18 08:16:00;;;;;;;4.47;0.60;;;;;;;15.41;52.85;101503.97;3632741;39;20038;-78
2021/06/18 08:18:29;;;;;;;0.82;0.50;;;;;;;15.45;53.35;101490.66;3630114;39;20422;-78
2021/06/18 08:20:56;;;;;;;3.83;0.65;;;;;;;15.53;52.79;101493.09;3623148;39;20082;-78
2021/06/18 08:23:25;;;;;;;3.38;0.90;;;;;;;15.65;52.32;101503.25;3632742;39;20319;-78
2021/06/18 08:25:56;;;;;;;4.15;0.60;;;;;;;15.73;52.49;101506.53;3635318;39;20039;-78
2021/06/18 08:28:26;;;;;;;2.38;0.52;;;;;;;15.76;52.13;101509.06;3637363;39;20469;-79
2021/06/18 08:31:04;;;;;;;2.30;0.50;;;;;;;15.90;51.86;101502.50;3639653;39;20031;-78
2021/06/18 08:33:36;;;;;;;1.80;0.60;;;;;;;16.00;52.28;101503.91;3636723;39;20081;-78
2021/06/18 08:36:06;;;;;;;1.05;0.35;;;;;;;16.07;50.87;101510.72;3628194;39;20035;-78
2021/06/18 08:38:35;;;;;;;2.45;0.60;;;;;;;16.14;50.52;101511.38;3628367;39;20048;-78
2021/06/18 08:41:05;;;;;;;1.15;0.55;;;;;;;16.24;50.41;101507.53;3627488;39;20072;-79
2021/06/18 08:43:35;;;;;;;2.17;0.88;;;;;;;16.28;49.67;101499.47;3634561;39;20078;-79
2021/06/18 08:46:04;;;;;;;1.48;0.50;;;;;;;16.32;50.81;101493.19;3634074;39;20031;-78
2021/06/18 08:48:57;;;;;;;1.33;0.55;;;;;;;16.44;50.90;101491.91;3631587;39;20038;-79
2021/06/18 08:51:28;;;;;;;1.13;0.50;;;;;;;16.46;50.29;101489.19;3643637;39;20023;-78
2021/06/18 08:53:55;;;;;;;1.30;0.47;;;;;;;16.48;49.56;101490.88;3636990;39;20027;-79
2021/06/18 08:56:26;;;;;;;0.73;0.45;;;;;;;16.56;50.10;101495.88;3644757;39;20406;-79
2021/06/18 08:59:44;;;;;;;2.33;0.32;;;;;;;16.67;50.34;101495.50;3640377;39;20038;-79
2021/06/18 09:02:17;;;;;;;2.08;0.55;;;;;;;16.71;49.41;101492.72;3634343;39;20030;-78
2021/06/18 09:05:09;;;;;;;2.20;0.95;;;;;;;16.80;50.16;101497.69;3641157;39;20420;-78
2021/06/18 09:07:46;;;;;;;5.93;0.60;;;;;;;16.89;49.67;101500.91;3634112;39;20080;-79
2021/06/18 09:10:33;;;;;;;1.63;0.68;;;;;;;16.98;49.21;101490.00;3631514;39;20038;-79
2021/06/18 09:47:20;;;;;;;1.80;0.70;;;;;;;19.88;46.20;101463.50;1224266;22;21457;-83
2021/06/18 09:50:14;;;;;;;1.17;0.68;;;;;;;20.41;44.53;101466.09;1223712;22;21504;-83
2021/06/18 10:32:35;;;;;;;2.78;1.20;;;;;;;24.73;37.52;101445.25;773339;22;21335;-84
2021/06/18 10:41:31;;;;;;;4.30;1.25;;;;;;;25.83;35.29;101426.59;1213237;23;22041;-84
2021/06/18 11:32:17;;;;;;;3.42;1.50;;;;;;;27.41;30.74;101390.91;1150912;22;20223;-84
2021/06/18 12:32:41;;;;;;;2.92;1.65;;;;;;;30.92;25.73;101362.78;693317;22;20279;-85
2021/06/18 12:53:40;;;;;;;4.53;1.90;;;;;;;30.26;26.71;101354.84;804635;22;21664;-86
2021/06/18 14:23:02;;;;;;;3.53;1.67;;;;;;;32.45;24.17;101276.97;726474;22;21530;-86
2021/06/18 14:29:23;;;;;;;5.72;2.10;;;;;;;31.87;24.84;101267.69;719343;23;21540;-85
2021/06/18 14:32:28;;;;;;;5.45;2.40;;;;;;;31.78;24.20;101272.19;1151918;22;20172;-85
2021/06/18 14:54:31;;;;;;;2.42;1.33;;;;;;;31.46;25.09;101248.50;727592;22;20258;-84
2021/06/18 14:57:01;;;;;;;4.53;2.45;;;;;;;31.34;22.38;101238.97;3597600;40;20040;-83
2021/06/18 14:59:27;;;;;;;4.13;2.05;;;;;;;31.33;23.53;101231.03;3593092;40;20041;-83
2021/06/18 15:01:57;;;;;;;4.47;2.22;;;;;;;31.45;23.22;101230.59;3598679;40;20082;-83
2021/06/18 15:04:28;;;;;;;3.58;2.30;;;;;;;31.62;23.89;101226.16;3568697;40;20108;-84
2021/06/18 15:07:00;;;;;;;4.32;1.85;;;;;;;31.82;24.46;101229.50;3571127;40;20064;-83
2021/06/18 15:09:27;;;;;;;3.15;2.17;;;;;;;31.83;22.92;101206.03;3576714;40;20976;-84
2021/06/18 15:11:55;;;;;;;;;;;;;;;32.27;25.40;101229.22;3568993;40;20036;-83
2021/06/18 15:14:26;;;;;;;1.83;1.40;;;;;;;32.12;24.04;101213.78;3574859;40;19965;-83
2021/06/18 15:16:58;;;;;;;4.07;2.15;;;;;;;32.23;23.70;101225.13;3575497;40;20763;-83
2021/06/18 15:19:27;;;;;;;2.78;1.75;;;;;;;32.04;23.07;101220.00;3566145;40;20406;-82
2021/06/18 15:22:18;;;;;;;4.25;2.20;;;;;;;31.95;24.04;101221.81;3573802;40;20053;-82
2021/06/18 15:24:45;;;;;;;3.60;1.90;;;;;;;31.58;23.13;101227.50;3578456;40;20029;-83
2021/06/18 15:27:14;;;;;;;;;;;;;;;31.43;24.70;101232.63;3569583;40;20088;-82
2021/06/18 15:29:41;;;;;;;3.50;1.67;;;;;;;30.91;23.36;101221.69;3572300;40;20317;-83
2021/06/18 15:32:08;;;;;;;3.90;2.03;;;;;;;30.60;22.73;101214.94;3576458;40;20045;-82
2021/06/18 15:34:43;;;;;;;3.55;1.80;;;;;;;30.28;24.21;101218.97;3577180;40;20035;-82
2021/06/18 15:37:09;;;;;;;3.58;2.00;;;;;;;29.92;23.97;101201.84;3577207;40;20742;-82
2021/06/18 15:39:38;;;;;;;3.78;1.77;;;;;;;29.67;24.26;101193.44;3577890;40;20099;-83
2021/06/18 15:42:05;;;;;;;3.08;1.90;;;;;;;29.62;24.82;101211.84;3575463;40;20121;-82
2021/06/18 15:44:33;;;;;;;4.53;2.17;;;;;;;29.54;24.67;101214.41;3592707;40;20028;-82
2021/06/18 15:47:02;;;;;;;5.03;2.10;;;;;;;29.51;25.03;101212.00;3597242;40;20032;-82
2021/06/18 15:49:29;;;;;;;3.15;1.85;;;;;;;29.39;25.30;101200.53;3581545;40;20587;-82
2021/06/18 15:51:57;;;;;;;3.50;1.65;;;;;;;29.50;25.20;101204.91;3584655;40;20095;-82
2021/06/18 15:54:31;;;;;;;8.32;2.17;;;;;;;29.57;25.35;101198.00;3592254;40;20084;-82
2021/06/18 15:56:59;;;;;;;3.55;1.52;;;;;;;29.65;25.34;101164.94;3596867;40;20660;-83
2021/06/18 15:59:27;;;;;;;4.78;2.60;;;;;;;30.23;24.31;101197.88;3595228;40;20028;-82
2021/06/18 16:01:54;;;;;;;3.42;1.77;;;;;;;30.70;25.23;101202.28;3585711;40;20065;-83
2021/06/18 16:04:22;;;;;;;4.90;2.03;;;;;;;31.24;23.97;101195.00;3585698;40;20086;-83
2021/06/18 16:06:58;;;;;;;5.38;2.35;;;;;;;31.87;24.73;101188.50;3583373;40;20063;-83
2021/06/18 16:09:26;;;;;;;5.57;2.20;;;;;;;32.29;23.99;101183.13;3571683;40;20085;-83
2021/06/18 16:11:55;;;;;;;6.30;2.15;;;;;;;32.77;23.53;101187.78;3592004;40;20083;-82
2021/06/18 16:14:21;;;;;;;5.47;2.30;;;;;;;33.19;23.83;101175.97;3596779;40;20028;-83
2021/06/18 16:16:48;;;;;;;4.80;2.08;;;;;;;33.63;21.50;101167.44;3596829;40;20101;-84
2021/06/18 16:19:17;;;;;;;3.78;2.05;;;;;;;34.04;21.04;101178.16;3585416;40;20396;-84
2021/06/18 16:21:45;;;;;;;4.55;1.95;;;;;;;34.37;20.74;101180.69;3603524;39;20039;-83
2021/06/18 16:24:12;;;;;;;5.00;2.10;;;;;;;34.47;20.05;101179.47;3599360;39;20060;-83
2021/06/18 16:26:42;;;;;;;3.38;1.75;;;;;;;34.45;21.38;101175.25;3604737;39;20086;-83
2021/06/18 16:29:10;;;;;;;4.28;2.22;;;;;;;34.38;21.22;101169.69;3604992;39;20044;-83
2021/06/18 16:31:39;;;;;;;4.88;1.92;;;;;;;34.25;21.34;101181.09;3603826;39;20443;-83
2021/06/18 16:34:06;;;;;;;3.85;2.08;;;;;;;34.11;21.08;101181.00;3589063;40;20028;-83
2021/06/18 16:36:34;;;;;;;8.38;2.47;;;;;;;33.86;20.73;101174.81;3596045;39;20044;-82
2021/06/18 16:39:01;;;;;;;3.75;1.70;;;;;;;33.62;21.64;101184.72;3604576;39;20357;-83
2021/06/18 16:41:32;;;;;;;4.35;1.92;;;;;;;33.39;21.64;101183.72;3588522;40;20038;-83
2021/06/18 16:44:00;;;;;;;3.42;1.90;;;;;;;33.03;21.88;101178.69;3606825;39;20100;-83
2021/06/18 16:46:27;;;;;;;6.13;2.45;;;;;;;32.54;21.97;101152.44;3599054;39;20122;-82
2021/06/18 16:48:54;;;;;;;4.20;1.90;;;;;;;32.34;22.36;101177.19;3605788;39;20039;-82
2021/06/18 16:51:24;;;;;;;5.43;2.38;;;;;;;32.11;22.03;101182.38;3601893;39;20642;-82
2021/06/18 16:53:52;;;;;;;3.67;1.77;;;;;;;31.60;22.55;101155.28;3607143;39;20091;-82
2021/06/18 16:56:19;;;;;;;4.55;1.77;;;;;;;31.39;22.98;101182.66;3605652;39;20036;-83
2021/06/18 16:58:49;;;;;;;4.35;1.60;;;;;;;31.09;23.21;101180.38;3607130;39;20028;-82
2021/06/18 17:01:18;;;;;;;3.85;1.48;;;;;;;30.81;23.46;101176.94;3605941;39;20035;-84
2021/06/18 17:03:46;;;;;;;4.10;1.52;;;;;;;30.49;23.91;101178.28;3608564;39;20495;-82
2021/06/18 17:06:13;;;;;;;4.28;2.22;;;;;;;30.27;24.16;101167.97;3598842;40;20076;-82
2021/06/18 17:08:41;;;;;;;5.22;3.05;;;;;;;30.06;24.27;101169.03;3592699;40;20032;-82
2021/06/18 17:11:10;;;;;;;5.13;2.75;;;;;;;29.88;24.67;101166.28;3609177;39;20060;-82